createdAt,value
2022-11-29T00:01:43.639Z,6.43
2022-11-29T00:04:14.423Z,6.93
2022-11-29T00:06:43.682Z,6.47
2022-11-29T00:09:14.173Z,6.70
2022-11-29T00:12:01.117Z,6.25
2022-11-29T00:14:29.298Z,6.63
2022-11-29T00:17:01.866Z,6.07
2022-11-29T00:19:34.641Z,6.65
2022-11-29T00:22:04.992Z,6.93
2022-11-29T00:24:36.394Z,6.40
2022-11-29T00:27:04.649Z,6.43
2022-11-29T00:29:34.359Z,6.80
2022-11-29T00:32:02.315Z,6.47
2022-11-29T00:34:30.365Z,7.05
2022-11-29T00:36:58.537Z,7.03
2022-11-29T00:39:28.370Z,6.75
2022-11-29T00:41:58.697Z,6.60
2022-11-29T00:44:28.524Z,7.32
2022-11-29T00:46:56.725Z,7.60
2022-11-29T00:49:24.537Z,7.00
2022-11-29T00:51:52.445Z,7.30
2022-11-29T00:54:24.128Z,7.93
2022-11-29T00:56:53.563Z,7.28
2022-11-29T00:59:21.640Z,6.47
2022-11-29T01:01:49.781Z,6.78
2022-11-29T01:04:17.959Z,7.90
2022-11-29T01:06:46.106Z,7.45
2022-11-29T01:09:14.123Z,7.07
2022-11-29T01:11:44.723Z,6.93
2022-11-29T01:14:14.398Z,6.80
2022-11-29T01:16:42.382Z,7.28
2022-11-29T01:19:12.722Z,7.63
2022-11-29T01:21:41.201Z,7.05
2022-11-29T01:24:09.221Z,6.72
2022-11-29T01:26:38.694Z,7.28
2022-11-29T01:29:08.526Z,7.40
2022-11-29T01:31:38.204Z,6.63
2022-11-29T01:34:08.526Z,7.28
2022-11-29T01:36:36.470Z,8.20
2022-11-29T01:39:06.779Z,7.93
2022-11-29T01:41:36.803Z,7.55
2022-11-29T01:44:07.883Z,8.18
2022-11-29T01:46:38.807Z,7.82
2022-11-29T01:49:12.446Z,8.15
2022-11-29T01:51:44.255Z,7.82
2022-11-29T01:54:13.493Z,8.38
2022-11-29T01:56:42.265Z,8.30
2022-11-29T01:59:16.524Z,7.88
2022-11-29T02:01:47.066Z,8.10
2022-11-29T02:04:15.305Z,9.02
2022-11-29T02:06:44.260Z,9.10
2022-11-29T02:09:19.857Z,9.23
2022-11-29T02:12:08.116Z,8.82
2022-11-29T02:14:58.463Z,9.52
2022-11-29T02:17:36.607Z,9.77
2022-11-29T02:20:28.684Z,9.25
2022-11-29T02:23:03.187Z,10.15
2022-11-29T02:25:55.609Z,9.88
2022-11-29T02:28:47.901Z,9.88
2022-11-29T02:31:55.578Z,9.43
2022-11-29T02:34:54.972Z,11.05
2022-11-29T02:37:59.415Z,10.57
2022-11-29T02:40:44.231Z,10.13
2022-11-29T02:43:33.768Z,10.98
2022-11-29T02:46:18.737Z,11.52
2022-11-29T02:48:56.811Z,11.90
2022-11-29T02:51:39.169Z,12.30
2022-11-29T02:54:16.840Z,12.55
2022-11-29T02:56:52.924Z,12.27
2022-11-29T02:59:34.994Z,11.50
2022-11-29T03:02:12.747Z,12.20
2022-11-29T03:04:48.976Z,11.77
2022-11-29T03:07:26.724Z,13.02
2022-11-29T03:10:02.124Z,12.05
2022-11-29T03:12:37.134Z,12.85
2022-11-29T03:15:20.335Z,12.85
2022-11-29T03:20:37.008Z,10.75
2022-11-29T03:23:19.671Z,12.88
2022-11-29T03:25:54.802Z,13.15
2022-11-29T03:28:27.482Z,13.02
2022-11-29T03:31:05.873Z,12.85
2022-11-29T03:33:52.484Z,12.95
2022-11-29T03:36:30.330Z,13.60
2022-11-29T03:39:04.250Z,13.40
2022-11-29T03:41:41.282Z,13.23
2022-11-29T03:44:14.287Z,13.90
2022-11-29T03:49:22.321Z,11.55
2022-11-29T03:52:00.283Z,13.38
2022-11-29T03:54:33.812Z,14.68
2022-11-29T03:57:02.459Z,13.88
2022-11-29T03:59:53.577Z,14.98
2022-11-29T04:02:56.843Z,14.73
2022-11-29T04:05:54.531Z,14.75
2022-11-29T04:08:46.343Z,13.40
2022-11-29T04:11:55.711Z,15.48
2022-11-29T04:14:34.629Z,14.73
2022-11-29T04:17:22.927Z,15.00
2022-11-29T04:20:04.357Z,15.93
2022-11-29T04:23:00.395Z,14.75
2022-11-29T04:25:45.290Z,14.85
2022-11-29T04:28:59.743Z,15.68
2022-11-29T04:31:38.835Z,15.38
2022-11-29T04:34:33.665Z,15.10
2022-11-29T04:37:19.493Z,15.65
2022-11-29T04:40:04.808Z,15.43
2022-11-29T04:43:06.977Z,17.05
2022-11-29T04:46:11.447Z,14.48
2022-11-29T04:49:11.605Z,15.57
2022-11-29T04:51:56.331Z,13.45
2022-11-29T04:54:35.650Z,16.08
2022-11-29T04:57:09.991Z,16.40
2022-11-29T04:59:45.698Z,16.63
2022-11-29T05:02:30.071Z,15.02
2022-11-29T05:05:05.126Z,15.85
2022-11-29T05:07:44.468Z,16.67
2022-11-29T05:10:25.964Z,16.05
2022-11-29T05:13:03.286Z,16.60
2022-11-29T05:15:59.181Z,17.42
2022-11-29T05:18:55.885Z,16.85
2022-11-29T05:21:31.717Z,15.93
2022-11-29T05:24:08.874Z,17.10
2022-11-29T05:26:44.810Z,16.67
2022-11-29T05:29:23.640Z,18.38
2022-11-29T05:32:04.584Z,16.48
2022-11-29T05:35:01.902Z,16.98
2022-11-29T05:37:53.989Z,16.63
2022-11-29T05:40:41.369Z,18.05
2022-11-29T05:43:35.171Z,17.38
2022-11-29T05:46:09.209Z,17.45
2022-11-29T05:48:46.022Z,17.45
2022-11-29T05:51:23.415Z,18.25
2022-11-29T05:54:01.881Z,18.20
2022-11-29T05:56:44.063Z,17.73
2022-11-29T05:59:17.579Z,17.30
2022-11-29T06:01:54.179Z,17.55
2022-11-29T06:04:29.201Z,17.67
2022-11-29T06:07:07.918Z,16.35
2022-11-29T06:09:44.151Z,15.13
2022-11-29T06:12:21.413Z,14.65
2022-11-29T06:15:07.262Z,15.20
2022-11-29T06:17:48.693Z,16.05
2022-11-29T06:20:34.928Z,14.52
2022-11-29T06:23:24.710Z,15.18
2022-11-29T06:26:09.561Z,14.65
2022-11-29T06:29:01.923Z,13.85
2022-11-29T06:31:37.838Z,14.10
2022-11-29T06:34:13.198Z,14.07
2022-11-29T06:36:46.233Z,16.20
2022-11-29T06:41:44.415Z,12.07
2022-11-29T06:44:13.075Z,13.20
2022-11-29T06:46:47.557Z,13.38
2022-11-29T06:49:25.852Z,12.15
2022-11-29T06:52:04.723Z,14.00
2022-11-29T06:54:49.211Z,14.25
2022-11-29T06:57:26.167Z,13.95
2022-11-29T07:00:06.266Z,14.27
2022-11-29T07:02:53.344Z,14.35
2022-11-29T07:05:26.789Z,13.57
2022-11-29T07:07:57.496Z,13.18
2022-11-29T07:10:28.696Z,12.48
2022-11-29T07:12:57.246Z,14.10
2022-11-29T07:15:25.952Z,14.57
2022-11-29T07:18:04.097Z,14.00
2022-11-29T07:20:40.454Z,13.13
2022-11-29T07:23:19.688Z,14.00
2022-11-29T07:25:55.619Z,13.32
2022-11-29T07:28:36.157Z,14.20
2022-11-29T07:31:10.803Z,15.10
2022-11-29T07:33:54.651Z,14.45
2022-11-29T07:36:35.931Z,14.18
2022-11-29T07:39:18.054Z,13.38
2022-11-29T07:41:54.339Z,14.63
2022-11-29T07:44:29.057Z,15.88
2022-11-29T07:46:57.017Z,15.18
2022-11-29T07:49:25.062Z,13.23
2022-11-29T07:51:54.730Z,12.85
2022-11-29T07:54:23.029Z,13.85
2022-11-29T07:56:52.434Z,13.15
2022-11-29T07:59:20.684Z,12.95
2022-11-29T08:01:49.011Z,12.60
2022-11-29T08:04:16.810Z,12.75
2022-11-29T08:06:44.664Z,12.77
2022-11-29T08:09:12.475Z,12.68
2022-11-29T08:11:40.921Z,12.60
2022-11-29T08:14:10.198Z,13.23
2022-11-29T08:16:38.363Z,14.43
2022-11-29T08:19:06.351Z,13.45
2022-11-29T08:21:34.270Z,15.25
2022-11-29T08:24:02.234Z,14.77
2022-11-29T08:26:31.822Z,15.15
2022-11-29T08:28:59.905Z,14.45
2022-11-29T08:31:29.268Z,15.93
2022-11-29T08:33:57.130Z,16.10
2022-11-29T08:36:24.952Z,16.65
2022-11-29T08:39:00.102Z,16.08
2022-11-29T08:41:31.982Z,14.02
2022-11-29T08:44:02.544Z,14.38
2022-11-29T08:46:45.608Z,15.18
2022-11-29T08:49:13.814Z,14.75
2022-11-29T08:51:41.619Z,14.55
2022-11-29T08:54:08.661Z,15.30
2022-11-29T08:59:26.062Z,15.43
2022-11-29T09:01:55.233Z,15.27
2022-11-29T09:04:23.126Z,16.75
2022-11-29T09:06:51.244Z,16.08
2022-11-29T09:09:19.764Z,16.50
2022-11-29T09:11:49.534Z,16.00
2022-11-29T09:14:22.841Z,17.25
2022-11-29T09:19:22.110Z,14.55
2022-11-29T09:21:51.790Z,15.70
2022-11-29T09:24:20.349Z,17.55
2022-11-29T09:26:49.010Z,15.80
2022-11-29T09:29:18.330Z,18.15
2022-11-29T09:31:46.276Z,16.98
2022-11-29T09:34:14.846Z,17.20
2022-11-29T09:36:45.018Z,16.50
2022-11-29T09:39:13.976Z,16.65
2022-11-29T09:41:58.784Z,17.48
2022-11-29T09:44:38.117Z,17.30
2022-11-29T09:47:17.433Z,17.38
2022-11-29T09:50:02.288Z,14.43
2022-11-29T09:52:44.472Z,16.90
2022-11-29T09:55:32.471Z,15.90
2022-11-29T09:58:03.905Z,15.73
2022-11-29T10:00:46.877Z,16.17
2022-11-29T10:03:24.495Z,18.55
2022-11-29T10:05:57.545Z,17.42
2022-11-29T10:11:15.636Z,15.82
2022-11-29T10:13:46.614Z,14.90
2022-11-29T10:16:22.348Z,14.38
2022-11-29T10:18:56.972Z,14.57
2022-11-29T10:21:30.667Z,14.80
2022-11-29T10:24:05.008Z,14.77
2022-11-29T10:26:35.477Z,14.60
2022-11-29T10:29:03.815Z,13.90
2022-11-29T10:31:36.174Z,12.77
2022-11-29T10:34:13.486Z,13.40
2022-11-29T10:36:44.402Z,12.45
2022-11-29T10:39:17.342Z,13.15
2022-11-29T10:44:15.633Z,10.52
2022-11-29T10:46:43.776Z,12.20
2022-11-29T10:49:17.114Z,11.77
2022-11-29T10:51:45.400Z,11.65
2022-11-29T10:54:28.880Z,11.82
2022-11-29T10:56:58.645Z,11.50
2022-11-29T10:59:28.857Z,11.77
2022-11-29T11:01:58.443Z,13.10
2022-11-29T11:04:30.698Z,11.95
2022-11-29T11:07:01.421Z,12.20
2022-11-29T11:09:35.795Z,12.07
2022-11-29T11:12:07.066Z,12.30
2022-11-29T11:14:39.323Z,12.63
2022-11-29T11:17:18.935Z,13.45
2022-11-29T11:19:59.183Z,12.48
2022-11-29T11:22:32.643Z,12.52
2022-11-29T11:25:06.042Z,13.65
2022-11-29T11:27:40.025Z,12.70
2022-11-29T11:32:38.021Z,10.43
2022-11-29T11:35:23.500Z,12.23
2022-11-29T11:37:57.777Z,11.27
2022-11-29T11:40:29.725Z,12.77
2022-11-29T11:43:00.280Z,11.60
2022-11-29T11:45:34.074Z,11.07
2022-11-29T11:48:06.046Z,11.65
2022-11-29T11:50:37.425Z,11.57
2022-11-29T11:53:08.566Z,11.65
2022-11-29T11:55:41.633Z,10.80
2022-11-29T11:58:18.398Z,11.00
2022-11-29T12:01:05.708Z,11.52
2022-11-29T12:03:45.732Z,10.68
2022-11-29T12:06:28.381Z,11.63
2022-11-29T12:09:05.308Z,10.73
2022-11-29T12:11:42.417Z,11.38
2022-11-29T12:14:25.252Z,11.30
2022-11-29T12:16:59.698Z,11.73
2022-11-29T12:19:36.653Z,11.73
2022-11-29T12:22:15.856Z,11.40
2022-11-29T12:24:51.782Z,11.95
2022-11-29T12:27:21.303Z,11.23
2022-11-29T12:29:49.420Z,11.10
2022-11-29T12:32:43.073Z,10.50
2022-11-29T12:35:34.830Z,9.90
2022-11-29T12:38:13.993Z,9.40
2022-11-29T12:40:48.324Z,10.07
2022-11-29T12:43:29.806Z,9.18
2022-11-29T12:46:04.900Z,8.85
2022-11-29T12:48:42.524Z,8.55
2022-11-29T12:51:22.131Z,10.55
2022-11-29T12:54:16.263Z,10.35
2022-11-29T12:56:51.882Z,9.10
2022-11-29T12:59:33.168Z,10.57
2022-11-29T13:02:21.854Z,11.18
2022-11-29T13:04:59.896Z,11.90
2022-11-29T13:07:38.611Z,11.70
2022-11-29T13:10:20.677Z,11.98
2022-11-29T13:12:52.921Z,12.80
2022-11-29T13:15:24.739Z,12.93
2022-11-29T13:18:00.345Z,13.40
2022-11-29T13:20:39.467Z,11.25
2022-11-29T13:23:39.060Z,12.80
2022-11-29T13:26:13.359Z,12.43
2022-11-29T13:28:43.821Z,11.20
2022-11-29T13:31:18.369Z,12.18
2022-11-29T13:33:57.861Z,11.95
2022-11-29T13:36:35.208Z,11.77
2022-11-29T13:39:16.889Z,11.25
2022-11-29T13:41:53.115Z,11.15
2022-11-29T13:44:31.144Z,11.82
2022-11-29T13:47:06.657Z,11.95
2022-11-29T13:49:54.062Z,12.70
2022-11-29T13:52:36.061Z,13.63
2022-11-29T13:55:37.580Z,14.02
2022-11-29T13:58:18.134Z,14.40
2022-11-29T14:00:52.494Z,15.13
2022-11-29T14:03:30.095Z,15.45
2022-11-29T14:06:18.922Z,14.95
2022-11-29T14:09:22.496Z,15.10
2022-11-29T14:11:56.374Z,13.07
2022-11-29T14:14:29.602Z,14.07
2022-11-29T14:17:01.219Z,13.07
2022-11-29T14:19:34.227Z,14.35
2022-11-29T14:22:22.390Z,14.70
2022-11-29T14:25:01.376Z,14.23
2022-11-29T14:27:58.761Z,15.30
2022-11-29T14:30:53.003Z,13.40
2022-11-29T14:33:37.280Z,13.48
2022-11-29T14:36:40.572Z,13.55
2022-11-29T14:39:31.342Z,12.70
2022-11-29T14:42:16.935Z,12.35
2022-11-29T14:44:47.961Z,11.77
2022-11-29T14:47:24.128Z,13.25
2022-11-29T14:49:54.118Z,11.82
2022-11-29T14:52:29.369Z,11.75
2022-11-29T14:55:01.856Z,11.43
2022-11-29T14:57:53.059Z,11.90
2022-11-29T15:00:23.063Z,11.07
2022-11-29T15:02:53.628Z,10.57
2022-11-29T15:05:25.684Z,10.48
2022-11-29T15:08:08.220Z,11.30
2022-11-29T15:10:41.504Z,11.00
2022-11-29T15:13:17.388Z,10.98
2022-11-29T15:16:12.367Z,10.98
2022-11-29T15:19:00.270Z,10.88
2022-11-29T15:21:41.131Z,13.52
2022-11-29T15:24:15.505Z,13.57
2022-11-29T15:26:56.594Z,12.75
2022-11-29T15:29:24.881Z,12.98
2022-11-29T15:31:55.832Z,12.88
2022-11-29T15:34:32.258Z,11.18
2022-11-29T15:37:00.883Z,11.70
2022-11-29T15:39:32.907Z,10.48
2022-11-29T15:42:02.466Z,10.77
2022-11-29T15:44:32.632Z,10.02
2022-11-29T15:47:17.957Z,9.82
2022-11-29T15:49:46.104Z,10.35
2022-11-29T15:52:20.612Z,9.88
2022-11-29T15:54:53.958Z,10.13
2022-11-29T15:59:59.934Z,8.23
2022-11-29T16:02:32.537Z,9.73
2022-11-29T16:05:06.642Z,9.38
2022-11-29T16:07:34.822Z,9.43
2022-11-29T16:10:11.837Z,9.23
2022-11-29T16:12:52.487Z,9.50
2022-11-29T16:15:31.818Z,10.13
2022-11-29T16:18:05.399Z,9.00
2022-11-29T16:20:34.074Z,8.80
2022-11-29T16:23:13.217Z,9.50
2022-11-29T16:26:08.044Z,8.85
2022-11-29T16:28:41.764Z,8.35
2022-11-29T16:31:14.917Z,8.60
2022-11-29T16:33:47.411Z,9.50
2022-11-29T16:36:18.584Z,8.73
2022-11-29T16:38:48.267Z,9.23
2022-11-29T16:41:26.222Z,9.50
2022-11-29T16:43:57.518Z,9.32
2022-11-29T16:46:35.519Z,10.27
2022-11-29T16:49:25.777Z,10.32
2022-11-29T16:51:55.314Z,9.35
2022-11-29T16:54:24.769Z,9.55
2022-11-29T16:56:56.866Z,8.90
2022-11-29T16:59:32.477Z,9.23
2022-11-29T17:02:00.758Z,8.07
2022-11-29T17:04:31.417Z,8.88
2022-11-29T17:07:00.650Z,9.07
2022-11-29T17:09:34.482Z,9.10
2022-11-29T17:12:11.087Z,8.68
2022-11-29T17:14:39.005Z,8.98
2022-11-29T17:17:07.282Z,8.27
2022-11-29T17:19:38.822Z,9.32
2022-11-29T17:22:06.778Z,8.27
2022-11-29T17:24:35.579Z,9.02
2022-11-29T17:27:05.157Z,9.30
2022-11-29T17:29:33.437Z,10.27
2022-11-29T17:32:01.592Z,10.65
2022-11-29T17:34:31.473Z,10.50
2022-11-29T17:37:00.275Z,11.13
2022-11-29T17:39:28.452Z,11.52
2022-11-29T17:41:56.644Z,10.32
2022-11-29T17:44:25.975Z,10.75
2022-11-29T17:46:53.877Z,10.15
2022-11-29T17:49:21.864Z,9.77
2022-11-29T17:51:52.815Z,10.38
2022-11-29T17:54:21.384Z,9.73
2022-11-29T17:56:49.289Z,9.35
2022-11-29T17:59:18.086Z,9.43
2022-11-29T18:01:48.401Z,9.38
2022-11-29T18:04:16.584Z,10.38
2022-11-29T18:06:50.601Z,11.85
2022-11-29T18:09:20.503Z,11.02
2022-11-29T18:11:50.561Z,11.13
2022-11-29T18:14:23.024Z,10.00
2022-11-29T18:16:53.197Z,9.07
2022-11-29T18:19:23.018Z,10.05
2022-11-29T18:21:54.879Z,8.98
2022-11-29T18:24:23.192Z,8.45
2022-11-29T18:26:51.732Z,8.25
2022-11-29T18:29:20.567Z,8.57
2022-11-29T18:31:48.929Z,8.35
2022-11-29T18:34:18.256Z,9.27
2022-11-29T18:36:48.161Z,7.93
2022-11-29T18:39:17.975Z,8.45
2022-11-29T18:41:47.908Z,9.23
2022-11-29T18:44:18.023Z,9.52
2022-11-29T18:46:47.208Z,9.82
2022-11-29T18:49:16.928Z,9.93
2022-11-29T18:51:47.553Z,9.68
2022-11-29T18:54:16.396Z,10.13
2022-11-29T18:56:45.578Z,9.63
2022-11-29T18:59:16.885Z,10.55
2022-11-29T19:01:47.680Z,9.80
2022-11-29T19:04:21.078Z,9.07
2022-11-29T19:06:50.896Z,10.05
2022-11-29T19:09:22.056Z,8.75
2022-11-29T19:11:50.953Z,9.10
2022-11-29T19:14:20.172Z,10.13
2022-11-29T19:16:52.231Z,10.15
2022-11-29T19:19:20.387Z,9.38
2022-11-29T19:21:52.807Z,9.95
2022-11-29T19:24:21.166Z,9.45
2022-11-29T19:26:50.382Z,10.27
2022-11-29T19:29:18.776Z,10.02
2022-11-29T19:31:46.905Z,10.00
2022-11-29T19:34:14.956Z,10.52
2022-11-29T19:36:44.438Z,9.40
2022-11-29T19:39:17.868Z,9.05
2022-11-29T19:41:47.735Z,10.35
2022-11-29T19:44:16.103Z,10.25
2022-11-29T19:46:45.637Z,10.20
2022-11-29T19:49:13.822Z,10.20
2022-11-29T19:51:42.611Z,10.35
2022-11-29T19:54:11.863Z,11.85
2022-11-29T19:56:41.687Z,11.80
2022-11-29T19:59:10.020Z,11.45
2022-11-29T20:01:42.039Z,12.73
2022-11-29T20:04:12.305Z,11.70
2022-11-29T20:06:41.025Z,11.45
2022-11-29T20:09:09.108Z,11.10
2022-11-29T20:11:37.091Z,10.98
2022-11-29T20:14:07.896Z,10.55
2022-11-29T20:16:41.075Z,11.13
2022-11-29T20:19:11.959Z,10.25
2022-11-29T20:21:44.913Z,11.10
2022-11-29T20:26:44.528Z,9.90
2022-11-29T20:29:14.565Z,10.35
2022-11-29T20:31:49.630Z,10.15
2022-11-29T20:34:19.098Z,11.18
2022-11-29T20:37:01.442Z,10.80
2022-11-29T20:39:39.742Z,10.30
2022-11-29T20:42:22.953Z,11.15
2022-11-29T20:47:26.325Z,10.50
2022-11-29T20:49:55.338Z,10.77
2022-11-29T20:52:37.403Z,11.73
2022-11-29T20:55:06.381Z,11.65
2022-11-29T20:57:34.207Z,13.25
2022-11-29T21:00:03.450Z,12.45
2022-11-29T21:02:31.272Z,11.95
2022-11-29T21:05:00.014Z,12.93
2022-11-29T21:07:29.218Z,13.05
2022-11-29T21:10:01.099Z,12.20
2022-11-29T21:12:30.645Z,12.45
2022-11-29T21:14:59.279Z,13.05
2022-11-29T21:17:33.506Z,12.98
2022-11-29T21:20:02.672Z,13.15
2022-11-29T21:22:40.843Z,13.20
2022-11-29T21:25:17.732Z,13.75
2022-11-29T21:27:47.219Z,13.90
2022-11-29T21:30:17.947Z,13.30
2022-11-29T21:32:49.963Z,13.95
2022-11-29T21:35:19.040Z,13.05
2022-11-29T21:37:47.196Z,13.65
2022-11-29T21:40:16.120Z,13.18
2022-11-29T21:42:44.091Z,12.98
2022-11-29T21:45:15.528Z,13.23
2022-11-29T21:47:44.274Z,13.07
2022-11-29T21:50:14.219Z,13.52
2022-11-29T21:52:44.229Z,13.65
2022-11-29T21:55:13.764Z,14.38
2022-11-29T21:57:41.773Z,13.48
2022-11-29T22:00:10.526Z,13.82
2022-11-29T22:02:38.646Z,13.80
2022-11-29T22:05:08.461Z,13.75
2022-11-29T22:07:37.705Z,14.43
2022-11-29T22:10:12.979Z,14.57
2022-11-29T22:12:51.431Z,13.57
2022-11-29T22:15:24.547Z,13.85
2022-11-29T22:17:53.479Z,13.07
2022-11-29T22:20:21.592Z,13.00
2022-11-29T22:22:54.466Z,13.13
2022-11-29T22:25:25.318Z,13.23
2022-11-29T22:27:53.187Z,13.38
2022-11-29T22:30:21.185Z,13.23
2022-11-29T22:32:49.229Z,13.73
2022-11-29T22:35:17.112Z,13.27
2022-11-29T22:37:44.945Z,13.10
2022-11-29T22:40:15.821Z,13.77
2022-11-29T22:42:43.636Z,14.43
2022-11-29T22:45:12.233Z,14.48
2022-11-29T22:47:40.037Z,14.23
2022-11-29T22:50:08.600Z,12.95
2022-11-29T22:52:36.428Z,13.63
2022-11-29T22:55:05.241Z,13.80
2022-11-29T22:57:34.578Z,14.30
2022-11-29T23:00:02.335Z,13.18
2022-11-29T23:02:30.287Z,13.43
2022-11-29T23:04:58.122Z,14.07
2022-11-29T23:07:25.937Z,14.10
2022-11-29T23:09:55.703Z,13.45
2022-11-29T23:12:23.623Z,12.98
2022-11-29T23:14:56.309Z,14.02
2022-11-29T23:17:24.570Z,13.18
2022-11-29T23:19:52.292Z,12.38
2022-11-29T23:22:20.081Z,12.70
2022-11-29T23:24:48.088Z,13.80
2022-11-29T23:27:16.211Z,12.95
2022-11-29T23:29:43.934Z,12.63
2022-11-29T23:32:13.500Z,13.20
2022-11-29T23:34:42.203Z,13.55
2022-11-29T23:37:10.001Z,13.85
2022-11-29T23:39:37.762Z,13.35
2022-11-29T23:42:05.830Z,14.63
2022-11-29T23:44:33.651Z,14.05
2022-11-29T23:47:01.505Z,13.07
2022-11-29T23:49:30.852Z,13.65
2022-11-29T23:51:58.648Z,13.02
2022-11-29T23:54:26.462Z,13.27
2022-11-29T23:56:54.356Z,13.00
2022-11-29T23:59:22.096Z,14.43
